Almedia, Pennsylvania
Current Conditions -  °F | °C
As of 10:35 AM on Friday 28 Nov 2014 (Local Time) from KHZL Reporting Station
Overcast Overcast  
Wind Chill: 17°   Ceiling: 3400
Heat Index: 28°   Visibility: 10mi
Dew Point: 16°   Wind: 15mph
Humidity: 59%   Direction: 290°WNW
Pressure: 30.19"   Gusts: 20mph
Location:  41.0301°N, 76.4558°W
Report Text: KHZL 281535Z AUTO 29013G17KT 10SM SCT028 OVC034 M02/M09 A3019 RMK AO2
Loading
Personal Weather Stations






























Interactive Weather Map New forecast layout! Learn more

10-Day Weather Forecast

Advertisements
Track Severe Weather on mobile